Time;durP1;ratioP1;P1;durP2;ratioP2;P2;SDS_P1;SDS_P2;PMS_P1;PMS_P2;Temp;Humidity;BMP_temperature;BMP_pressure;BME280_temperature;BME280_humidity;BME280_pressure;Samples;Min_cycle;Max_cycle;Signal;HPM_P1;HPM_P2
2022/08/29 00:01:56;;;;;;;;;;;;;;;18.57;56.33;101528.16;5063440;28;19981;-52
2022/08/29 00:04:22;;;;;;;;;;;;;;;18.56;56.52;101529.97;5061032;28;19920;-53
2022/08/29 00:06:47;;;;;;;;;;;;;;;18.56;56.48;101532.63;5064886;28;20386;-52
2022/08/29 00:09:12;;;;;;;;;;;;;;;18.54;56.69;101531.88;5061907;28;20407;-52
2022/08/29 00:11:38;;;;;;;;;;;;;;;18.52;56.54;101528.53;5078816;28;20299;-52
2022/08/29 00:14:03;;;;;;;;;;;;;;;18.52;56.56;101535.66;5066579;28;20778;-53
2022/08/29 00:16:28;;;;;;;;;;;;;;;18.50;56.78;101538.47;5064420;28;20152;-52
2022/08/29 00:18:53;;;;;;;;;;;;;;;18.48;56.71;101534.19;5063518;28;20023;-52
2022/08/29 00:21:19;;;;;;;;;;;;;;;18.46;56.80;101531.66;5067318;28;19961;-53
2022/08/29 00:23:44;;;;;;;;;;;;;;;18.46;57.00;101531.66;5065483;28;19928;-53
2022/08/29 00:26:10;;;;;;;;;;;;;;;18.45;57.00;101532.63;5067719;28;20110;-53
2022/08/29 00:28:35;;;;;;;;;;;;;;;18.46;57.03;101529.00;5065370;28;19916;-53
2022/08/29 00:31:00;;;;;;;;;;;;;;;18.43;56.98;101527.44;5063872;28;20388;-52
2022/08/29 00:33:26;;;;;;;;;;;;;;;18.39;57.02;101531.31;5067233;28;20426;-53
2022/08/29 00:35:51;;;;;;;;;;;;;;;18.38;57.24;101534.06;5066006;28;19936;-54
2022/08/29 00:38:17;;;;;;;;;;;;;;;18.36;57.10;101542.19;5080977;28;20380;-52
2022/08/29 00:40:44;;;;;;;;;;;;;;;18.30;57.58;101539.16;5065495;28;19921;-53
2022/08/29 00:43:10;;;;;;;;;;;;;;;18.27;57.56;101546.41;5066191;28;19916;-53
2022/08/29 00:45:45;;;;;;;;;;;;;;;18.26;57.40;101542.06;5066883;28;19928;-53
2022/08/29 00:48:12;;;;;;;;;;;;;;;18.26;57.73;101544.72;5065023;28;19917;-53
2022/08/29 00:50:41;;;;;;;;;;;;;;;18.24;57.68;101543.16;5064419;28;19963;-54
2022/08/29 00:53:09;;;;;;;;;;;;;;;18.22;57.50;101545.09;5063299;28;19920;-53
2022/08/29 00:55:37;;;;;;;;;;;;;;;18.22;57.74;101556.59;5061936;28;20048;-53
2022/08/29 00:58:04;;;;;;;;;;;;;;;18.25;57.84;101537.69;5065135;28;20574;-52
2022/08/29 01:00:31;;;;;;;;;;;;;;;18.30;57.80;101541.81;5061496;28;19961;-55
2022/08/29 01:02:56;;;;;;;;;;;;;;;18.32;57.66;101545.22;5060781;28;19916;-53
2022/08/29 01:05:22;;;;;;;;;;;;;;;18.33;57.85;101547.75;5065088;28;19985;-53
2022/08/29 01:07:48;;;;;;;;;;;;;;;18.35;57.99;101545.00;5061998;28;20350;-53
2022/08/29 01:12:14;;;;;;;;;;;;;;;18.38;58.25;101550.06;5063383;28;19928;-52
2022/08/29 01:12:59;;;;;;;;;;;;;;;18.40;58.11;101543.66;5068284;28;19924;-53
2022/08/29 01:15:26;;;;;;;;;;;;;;;18.42;57.87;101538.19;5064407;28;19927;-53
2022/08/29 01:17:53;;;;;;;;;;;;;;;18.44;57.96;101533.59;5062939;28;19955;-53
2022/08/29 01:20:23;;;;;;;;;;;;;;;18.46;58.02;101536.13;5062775;28;19942;-54
2022/08/29 01:23:04;;;;;;;;;;;;;;;18.46;57.93;101537.00;5061781;28;19916;-53
2022/08/29 01:25:31;;;;;;;;;;;;;;;18.48;57.88;101534.19;5065990;28;19912;-52
2022/08/29 01:28:10;;;;;;;;;;;;;;;18.47;58.13;101527.16;5065298;28;20406;-53
2022/08/29 01:30:36;;;;;;;;;;;;;;;18.46;58.07;101539.66;5063430;28;19920;-53
2022/08/29 01:33:02;;;;;;;;;;;;;;;18.45;58.36;101539.78;5044720;28;19923;-54
2022/08/29 01:35:27;;;;;;;;;;;;;;;18.44;58.18;101544.25;5059423;28;19935;-53
2022/08/29 01:37:53;;;;;;;;;;;;;;;18.41;58.17;101539.16;5059617;28;20042;-53
2022/08/29 01:40:19;;;;;;;;;;;;;;;18.41;58.19;101540.03;5058422;28;19920;-52
2022/08/29 01:42:45;;;;;;;;;;;;;;;18.40;58.43;101538.31;5059502;28;20356;-53
2022/08/29 01:45:10;;;;;;;;;;;;;;;18.38;58.49;101539.41;5058837;28;19924;-52
2022/08/29 01:47:37;;;;;;;;;;;;;;;18.35;58.54;101542.31;5061819;28;19939;-52
2022/08/29 01:50:04;;;;;;;;;;;;;;;18.31;58.28;101547.03;5054557;28;20403;-54
2022/08/29 01:52:31;;;;;;;;;;;;;;;18.28;58.47;101545.47;5054693;28;19920;-53
2022/08/29 01:54:56;;;;;;;;;;;;;;;18.27;58.46;101543.75;5057505;28;19928;-52
2022/08/29 01:57:21;;;;;;;;;;;;;;;18.26;58.56;101547.38;5058480;28;19925;-53
2022/08/29 01:59:47;;;;;;;;;;;;;;;18.27;58.52;101549.09;5058032;28;20490;-52
2022/08/29 02:02:16;;;;;;;;;;;;;;;18.26;58.80;101547.38;5055581;28;20694;-52
2022/08/29 02:04:44;;;;;;;;;;;;;;;18.24;58.82;101548.47;5059090;28;19924;-54
2022/08/29 02:07:09;;;;;;;;;;;;;;;18.24;58.85;101538.66;5057560;28;19924;-52
2022/08/29 02:09:35;;;;;;;;;;;;;;;18.23;58.89;101544.97;5060375;28;20299;-52
2022/08/29 02:12:06;;;;;;;;;;;;;;;18.23;58.87;101544.97;5059787;28;20015;-54
2022/08/29 02:14:32;;;;;;;;;;;;;;;18.20;58.68;101547.88;5061877;28;19928;-52
2022/08/29 02:16:57;;;;;;;;;;;;;;;18.18;58.96;101552.47;5057419;28;19920;-52
2022/08/29 02:19:22;;;;;;;;;;;;;;;18.16;58.97;101546.41;5060155;28;19928;-53
2022/08/29 02:21:48;;;;;;;;;;;;;;;18.13;58.79;101542.19;5057105;28;19925;-53
2022/08/29 02:24:16;;;;;;;;;;;;;;;18.10;58.83;101544.22;5056863;28;20419;-53
2022/08/29 02:26:41;;;;;;;;;;;;;;;18.06;59.06;101542.78;5058262;28;20512;-52
2022/08/29 02:29:08;;;;;;;;;;;;;;;18.04;59.04;101544.69;5059344;28;19920;-52
2022/08/29 02:31:35;;;;;;;;;;;;;;;18.04;59.24;101548.19;5055367;28;20453;-53
2022/08/29 02:34:01;;;;;;;;;;;;;;;18.03;59.27;101546.50;5058294;28;19945;-53
2022/08/29 02:36:26;;;;;;;;;;;;;;;18.00;59.36;101540.56;5056498;28;20387;-53
2022/08/29 02:38:51;;;;;;;;;;;;;;;17.97;59.31;101544.28;5041877;28;20302;-53
2022/08/29 02:41:16;;;;;;;;;;;;;;;17.95;59.48;101539.06;5056483;28;20398;-52
2022/08/29 02:43:42;;;;;;;;;;;;;;;17.93;59.38;101550.81;5060081;28;19964;-51
2022/08/29 02:46:11;;;;;;;;;;;;;;;17.89;59.57;101552.88;5057612;28;19952;-53
2022/08/29 02:48:36;;;;;;;;;;;;;;;17.82;59.56;101551.63;5057764;28;19924;-53
2022/08/29 02:51:02;;;;;;;;;;;;;;;17.77;59.68;101551.97;5060262;28;19935;-52
2022/08/29 02:53:29;;;;;;;;;;;;;;;17.73;59.67;101557.66;5058454;28;19928;-53
2022/08/29 02:55:55;;;;;;;;;;;;;;;17.68;59.76;101558.84;5062440;28;20392;-53
2022/08/29 02:58:21;;;;;;;;;;;;;;;17.60;59.96;101550.59;5060371;28;19947;-53
2022/08/29 03:00:47;;;;;;;;;;;;;;;17.58;60.12;101555.19;5061604;28;19963;-52
2022/08/29 03:03:12;;;;;;;;;;;;;;;17.58;60.03;101556.97;5066119;28;20017;-53
2022/08/29 03:05:37;;;;;;;;;;;;;;;17.57;60.19;101544.63;5057481;28;19924;-53
2022/08/29 03:08:05;;;;;;;;;;;;;;;17.55;60.38;101542.09;5062439;28;19920;-52
2022/08/29 03:10:30;;;;;;;;;;;;;;;17.56;60.43;101543.78;5064092;28;19934;-53
2022/08/29 03:12:56;;;;;;;;;;;;;;;17.55;60.38;101547.41;5059993;28;19928;-52
2022/08/29 03:15:22;;;;;;;;;;;;;;;17.54;60.50;101539.56;5063071;28;19921;-53
2022/08/29 03:17:48;;;;;;;;;;;;;;;17.53;60.37;101538.69;5061353;28;20019;-53
2022/08/29 03:20:15;;;;;;;;;;;;;;;17.53;60.46;101538.69;5061942;28;19936;-52
2022/08/29 03:22:40;;;;;;;;;;;;;;;17.54;60.80;101532.41;5063697;28;20250;-52
2022/08/29 03:25:06;;;;;;;;;;;;;;;17.55;60.49;101541.22;5060138;28;19920;-53
2022/08/29 03:27:32;;;;;;;;;;;;;;;17.56;60.56;101527.84;5055878;28;19921;-54
2022/08/29 03:29:57;;;;;;;;;;;;;;;17.56;60.89;101537.63;5062437;28;19929;-53
2022/08/29 03:32:23;;;;;;;;;;;;;;;17.54;60.81;101540.41;5042889;28;20433;-52
2022/08/29 03:34:49;;;;;;;;;;;;;;;17.54;60.83;101529.75;5062037;28;19932;-52
2022/08/29 03:37:14;;;;;;;;;;;;;;;17.53;60.84;101533.38;5057904;28;19924;-53
2022/08/29 03:39:40;;;;;;;;;;;;;;;17.56;60.88;101533.16;5063056;28;19982;-53
2022/08/29 03:42:06;;;;;;;;;;;;;;;17.56;60.76;101540.28;5061623;28;19931;-53
2022/08/29 03:44:32;;;;;;;;;;;;;;;17.54;60.89;101531.59;5058307;28;19931;-52
2022/08/29 03:46:57;;;;;;;;;;;;;;;17.48;61.07;101531.06;5047690;28;19985;-53
2022/08/29 03:49:23;;;;;;;;;;;;;;;17.46;61.27;101533.00;5059020;28;20338;-52
2022/08/29 03:51:49;;;;;;;;;;;;;;;17.45;61.40;101530.47;5061160;28;19931;-53
2022/08/29 03:54:14;;;;;;;;;;;;;;;17.46;61.25;101534.81;5060289;28;19928;-52
2022/08/29 03:56:39;;;;;;;;;;;;;;;17.47;61.33;101533.84;5059667;28;19932;-53
2022/08/29 03:59:04;;;;;;;;;;;;;;;17.47;61.40;101540.00;5056231;28;19920;-51
2022/08/29 04:01:30;;;;;;;;;;;;;;;17.46;61.40;101532.16;5059393;28;19928;-53
2022/08/29 04:03:56;;;;;;;;;;;;;;;17.45;61.60;101535.78;5059299;28;20338;-52
2022/08/29 04:06:22;;;;;;;;;;;;;;;17.43;61.51;101535.03;5058616;28;19917;-52
2022/08/29 04:08:48;;;;;;;;;;;;;;;17.44;61.66;101528.75;5061101;28;20295;-52
2022/08/29 04:11:16;;;;;;;;;;;;;;;17.46;61.80;101532.16;5060008;28;19929;-52
2022/08/29 04:13:41;;;;;;;;;;;;;;;17.46;61.71;101529.50;5060652;28;20379;-51
2022/08/29 04:16:10;;;;;;;;;;;;;;;17.48;61.74;101535.53;5065145;28;19966;-53
2022/08/29 04:18:35;;;;;;;;;;;;;;;17.49;61.96;101531.91;5066361;28;20015;-53
2022/08/29 04:21:01;;;;;;;;;;;;;;;17.49;61.99;101531.91;5062463;28;20023;-53
2022/08/29 04:23:26;;;;;;;;;;;;;;;17.45;61.95;101531.28;5066461;28;19921;-54
2022/08/29 04:25:52;;;;;;;;;;;;;;;17.40;62.23;101538.75;5067982;28;19966;-52
2022/08/29 04:28:17;;;;;;;;;;;;;;;17.40;62.24;101548.56;5049929;28;19931;-53
2022/08/29 04:30:46;;;;;;;;;;;;;;;17.37;62.19;101542.50;5056653;28;20477;-52
2022/08/29 04:33:12;;;;;;;;;;;;;;;17.33;62.54;101546.34;5061964;28;20280;-52
2022/08/29 04:35:38;;;;;;;;;;;;;;;17.30;62.51;101543.94;5058010;28;20034;-52
2022/08/29 04:38:04;;;;;;;;;;;;;;;17.29;62.77;101549.34;5059533;28;19924;-51
2022/08/29 04:40:29;;;;;;;;;;;;;;;17.25;63.01;101555.84;5063035;28;19921;-51
2022/08/29 04:42:54;;;;;;;;;;;;;;;17.24;62.95;101551.50;5064822;28;19972;-50
2022/08/29 04:45:20;;;;;;;;;;;;;;;17.23;62.92;101547.16;5063067;28;19924;-52
2022/08/29 04:47:46;;;;;;;;;;;;;;;17.16;62.93;101560.88;5059095;28;20291;-51
2022/08/29 04:50:13;;;;;;;;;;;;;;;17.08;63.17;101560.59;5056785;28;19924;-52
2022/08/29 04:52:39;;;;;;;;;;;;;;;17.01;63.32;101565.53;5054655;28;19920;-52
2022/08/29 04:55:05;;;;;;;;;;;;;;;16.96;63.13;101565.00;5058449;28;20172;-53
2022/08/29 04:57:30;;;;;;;;;;;;;;;16.92;63.46;101560.81;5064576;28;19982;-52
2022/08/29 04:59:57;;;;;;;;;;;;;;;16.87;63.57;101568.25;5062273;28;19970;-53
2022/08/29 05:02:23;;;;;;;;;;;;;;;16.85;63.92;101570.22;5059804;28;19928;-52
2022/08/29 05:04:51;;;;;;;;;;;;;;;16.77;63.96;101573.41;5062973;28;19935;-54
2022/08/29 05:07:19;;;;;;;;;;;;;;;16.68;64.33;101574.91;5062145;28;19920;-53
2022/08/29 05:09:45;;;;;;;;;;;;;;;16.60;64.62;101577.22;5063089;28;19932;-52
2022/08/29 05:12:11;;;;;;;;;;;;;;;16.50;64.73;101574.38;5061338;28;19978;-53
2022/08/29 05:14:36;;;;;;;;;;;;;;;16.46;65.20;101562.28;5060113;28;20390;-52
2022/08/29 05:17:02;;;;;;;;;;;;;;;16.45;65.20;101566.72;5061377;28;19920;-52
2022/08/29 05:19:27;;;;;;;;;;;;;;;16.46;64.99;101586.19;5062566;28;20391;-52
2022/08/29 05:21:56;;;;;;;;;;;;;;;16.42;65.10;101585.53;5060673;28;19971;-54
2022/08/29 05:24:22;;;;;;;;;;;;;;;16.40;65.45;101578.63;5061828;28;19928;-52
2022/08/29 05:26:47;;;;;;;;;;;;;;;16.40;65.67;101582.16;5061981;28;19920;-52
2022/08/29 05:29:12;;;;;;;;;;;;;;;16.50;65.59;101587.66;5062066;28;19921;-52
2022/08/29 05:31:40;;;;;;;;;;;;;;;16.53;65.52;101591.91;5060849;28;19920;-54
2022/08/29 05:34:06;;;;;;;;;;;;;;;16.55;65.53;101584.69;5062229;28;19966;-52
2022/08/29 05:36:32;;;;;;;;;;;;;;;16.56;65.58;101591.72;5061415;28;19929;-53
2022/08/29 05:38:58;;;;;;;;;;;;;;;16.59;65.76;101591.47;5060538;28;19947;-54
2022/08/29 05:41:24;;;;;;;;;;;;;;;16.64;66.08;101584.03;5062493;28;19924;-53
2022/08/29 05:43:49;;;;;;;;;;;;;;;16.65;66.19;101585.75;5063744;28;20438;-53
2022/08/29 05:46:15;;;;;;;;;;;;;;;16.68;66.19;101585.53;5063025;28;19928;-53
2022/08/29 05:48:44;;;;;;;;;;;;;;;16.74;66.24;101584.25;5063781;28;19925;-52
2022/08/29 05:51:19;;;;;;;;;;;;;;;16.81;66.03;101587.31;5063946;28;19932;-53
2022/08/29 05:53:44;;;;;;;;;;;;;;;16.88;66.00;101585.91;5084366;28;19928;-54
2022/08/29 05:56:10;;;;;;;;;;;;;;;16.93;65.89;101589.09;5065352;28;20346;-52
2022/08/29 05:58:35;;;;;;;;;;;;;;;17.01;65.96;101594.75;5061457;28;20015;-52
2022/08/29 06:01:00;;;;;;;;;;;;;;;17.09;65.78;101588.91;5060348;28;19927;-52
2022/08/29 06:03:28;;;;;;;;;;;;;;;17.15;65.86;101587.59;5059136;28;20315;-52
2022/08/29 06:05:53;;;;;;;;;;;;;;;17.20;65.52;101588.09;5057865;28;19939;-52
2022/08/29 06:08:19;;;;;;;;;;;;;;;17.23;65.54;101593.19;5058159;28;19925;-52
2022/08/29 06:10:45;;;;;;;;;;;;;;;17.28;65.64;101591.06;5046882;28;20387;-53
2022/08/29 06:13:11;;;;;;;;;;;;;;;17.35;65.55;101594.13;5062991;28;20364;-52
2022/08/29 06:15:36;;;;;;;;;;;;;;;17.40;65.78;101588.47;5063282;28;19934;-52
2022/08/29 06:18:02;;;;;;;;;;;;;;;17.47;65.53;101595.88;5067341;28;19919;-53
2022/08/29 06:20:27;;;;;;;;;;;;;;;17.52;65.62;101591.09;5067106;28;19959;-53
2022/08/29 06:22:52;;;;;;;;;;;;;;;17.57;65.46;101598.72;5065600;28;19947;-53
2022/08/29 06:25:18;;;;;;;;;;;;;;;17.61;65.44;101600.19;5065357;28;19917;-53
2022/08/29 06:27:43;;;;;;;;;;;;;;;17.64;65.38;101589.31;5068156;28;19924;-52
2022/08/29 06:30:08;;;;;;;;;;;;;;;17.69;65.39;101596.97;5070219;28;20394;-53
2022/08/29 06:32:34;;;;;;;;;;;;;;;17.73;65.57;101602.91;5069971;28;19923;-52
2022/08/29 06:34:59;;;;;;;;;;;;;;;17.76;65.67;101598.19;5068384;28;19920;-53
2022/08/29 06:37:24;;;;;;;;;;;;;;;17.80;65.47;101606.78;5068586;28;19931;-53
2022/08/29 06:39:50;;;;;;;;;;;;;;;17.87;65.67;101605.38;5068908;28;19959;-53
2022/08/29 06:42:17;;;;;;;;;;;;;;;17.92;65.49;101608.53;5067497;28;19970;-54
2022/08/29 06:44:43;;;;;;;;;;;;;;;17.93;65.63;101612.88;5067626;28;19974;-53
2022/08/29 06:47:09;;;;;;;;;;;;;;;17.96;65.57;101620.66;5069234;28;20277;-53
2022/08/29 06:49:34;;;;;;;;;;;;;;;17.99;65.38;101624.94;5068173;28;19921;-54
2022/08/29 06:51:59;;;;;;;;;;;;;;;18.00;65.53;101615.13;5066039;28;19921;-53
2022/08/29 06:54:25;;;;;;;;;;;;;;;18.01;65.48;101616.81;5067285;28;19933;-53
2022/08/29 06:56:51;;;;;;;;;;;;;;;18.00;65.65;101618.63;5069091;28;20376;-55
2022/08/29 06:59:17;;;;;;;;;;;;;;;18.00;65.71;101615.13;5067080;28;19935;-52
2022/08/29 07:01:42;;;;;;;;;;;;;;;18.01;65.82;101616.81;5069052;28;19940;-53
2022/08/29 07:04:08;;;;;;;;;;;;;;;18.02;65.79;101613.19;5067099;28;20543;-53
2022/08/29 07:06:35;;;;;;;;;;;;;;;18.06;65.73;101625.31;5067682;28;19973;-54
2022/08/29 07:09:00;;;;;;;;;;;;;;;18.07;65.88;101619.03;5068728;28;20444;-53
2022/08/29 07:11:28;;;;;;;;;;;;;;;18.08;66.39;101618.91;5064046;28;19924;-53
2022/08/29 07:13:58;;;;;;;;;;;;;;;18.11;66.32;101624.00;5065523;28;20442;-53
2022/08/29 07:16:24;;;;;;;;;;;;;;;18.16;66.40;101614.81;5060855;28;20057;-54
2022/08/29 07:18:49;;;;;;;;;;;;;;;18.22;66.24;101623.19;5063006;28;19916;-53
2022/08/29 07:21:16;;;;;;;;;;;;;;;18.27;66.19;101623.69;5044328;28;20034;-52
2022/08/29 07:23:42;;;;;;;;;;;;;;;18.33;66.23;101616.19;5065367;28;20396;-53
2022/08/29 07:26:09;;;;;;;;;;;;;;;18.39;65.88;101615.69;5063260;28;19931;-53
2022/08/29 07:28:34;;;;;;;;;;;;;;;18.46;66.10;101616.06;5063997;28;19975;-54
2022/08/29 07:31:00;;;;;;;;;;;;;;;18.52;65.97;101621.81;5059779;28;19959;-52
2022/08/29 07:33:25;;;;;;;;;;;;;;;18.59;66.04;101620.34;5061152;28;19920;-53
2022/08/29 07:35:53;;;;;;;;;;;;;;;18.66;65.89;101625.19;5061919;28;19935;-53
2022/08/29 07:38:18;;;;;;;;;;;;;;;18.69;65.47;101616.94;5059122;28;20015;-52
2022/08/29 07:40:44;;;;;;;;;;;;;;;18.72;65.61;101619.38;5061719;28;20056;-53
2022/08/29 07:43:09;;;;;;;;;;;;;;;18.77;65.63;101625.19;5065818;28;20011;-52
2022/08/29 07:45:36;;;;;;;;;;;;;;;18.83;65.63;101624.69;5064112;28;20481;-52
2022/08/29 07:48:02;;;;;;;;;;;;;;;18.89;65.51;101626.88;5063042;28;19975;-53
2022/08/29 07:50:27;;;;;;;;;;;;;;;18.94;65.41;101631.88;5065041;28;20369;-52
2022/08/29 07:52:52;;;;;;;;;;;;;;;18.97;65.23;101631.66;5044921;28;19920;-52
2022/08/29 07:55:20;;;;;;;;;;;;;;;18.98;65.39;101627.19;5064729;28;20405;-52
2022/08/29 07:57:47;;;;;;;;;;;;;;;19.00;65.41;101630.53;5064568;28;20319;-52
2022/08/29 08:00:13;;;;;;;;;;;;;;;19.02;65.68;101631.28;5064654;28;19977;-51
2022/08/29 08:02:38;;;;;;;;;;;;;;;19.06;65.39;101638.06;5063662;28;19929;-52
2022/08/29 08:05:03;;;;;;;;;;;;;;;19.11;65.41;101641.22;5063081;28;19982;-52
2022/08/29 08:07:31;;;;;;;;;;;;;;;19.14;65.20;101638.28;5063204;28;19917;-52
2022/08/29 08:09:57;;;;;;;;;;;;;;;19.14;65.49;101640.13;5064890;28;19925;-52
2022/08/29 08:12:24;;;;;;;;;;;;;;;19.16;65.42;101644.34;5064411;28;20312;-52
2022/08/29 08:14:49;;;;;;;;;;;;;;;19.21;65.37;101643.16;5065893;28;19924;-53
2022/08/29 08:17:15;;;;;;;;;;;;;;;19.27;65.31;101640.00;5068328;28;19925;-52
2022/08/29 08:19:40;;;;;;;;;;;;;;;19.34;65.21;101644.72;5046431;28;20357;-53
2022/08/29 08:22:05;;;;;;;;;;;;;;;19.40;65.32;101639.84;5065912;28;19966;-53
2022/08/29 08:24:31;;;;;;;;;;;;;;;19.44;64.97;101642.13;5066567;28;20314;-53
2022/08/29 08:26:56;;;;;;;;;;;;;;;19.47;65.04;101644.53;5063400;28;20339;-54
2022/08/29 08:29:22;;;;;;;;;;;;;;;19.52;64.71;101641.50;5066399;28;19920;-53
2022/08/29 08:31:48;;;;;;;;;;;;;;;19.57;64.93;101641.97;5065706;28;19928;-53
2022/08/29 08:34:14;;;;;;;;;;;;;;;19.63;64.83;101651.31;5064061;28;19916;-53
2022/08/29 08:36:41;;;;;;;;;;;;;;;19.65;64.53;101646.69;5064655;28;19916;-53
2022/08/29 08:39:07;;;;;;;;;;;;;;;19.68;64.82;101646.44;5061991;28;19974;-54
2022/08/29 08:41:44;;;;;;;;;;;;;;;19.70;64.83;101644.50;5066223;28;19920;-54
2022/08/29 08:44:14;;;;;;;;;;;;;;;19.68;64.87;101656.25;5063296;28;20388;-52
2022/08/29 08:46:42;;;;;;;;;;;;;;;19.67;64.59;101655.41;5066452;28;19917;-52
2022/08/29 08:49:15;;;;;;;;;;;;;;;19.70;65.01;101654.31;5063258;28;20441;-53
2022/08/29 08:51:43;;;;;;;;;;;;;;;19.76;64.72;101661.81;5062525;28;19932;-53
2022/08/29 08:54:13;;;;;;;;;;;;;;;19.82;64.67;101653.28;5062060;28;19960;-52
2022/08/29 08:56:46;;;;;;;;;;;;;;;-147.11;100.00;61570.13;5063494;28;20351;-52
2022/08/29 08:59:12;;;;;;;;;;;;;;;-147.11;100.00;61570.13;5063232;28;20384;-53
2022/08/29 09:02:01;;;;;;;;;;;;;;;19.82;64.67;101653.28;5062694;28;19916;-52
2022/08/29 09:04:52;;;;;;;;;;;;;;;20.07;64.21;101661.97;5055761;28;19935;-52
2022/08/29 09:07:56;;;;;;;;;;;;;;;20.09;64.63;101660.03;5062621;28;20383;-52
2022/08/29 09:10:24;;;;;;;;;;;;;;;20.13;64.49;101671.31;5000304;28;19922;-52
2022/08/29 09:13:13;;;;;;;;;;;;;;;20.15;64.28;101675.53;5002617;28;19940;-53
2022/08/29 09:15:42;;;;;;;;;;;;;;;20.08;64.52;101672.53;5031215;28;19920;-53
2022/08/29 09:18:22;;;;;;;;;;;;;;;19.99;64.75;101681.31;5064276;28;20019;-52
2022/08/29 09:20:47;;;;;;;;;;;;;;;19.88;64.74;101668.84;5063917;28;19978;-52
2022/08/29 09:23:42;;;;;;;;;;;;;;;19.79;65.16;101670.44;5062633;28;20575;-53
2022/08/29 09:26:07;;;;;;;;;;;;;;;19.76;65.48;101665.34;5057353;28;20372;-52
2022/08/29 09:28:32;;;;;;;;;;;;;;;19.76;65.74;101665.34;5061900;28;19923;-52
2022/08/29 09:31:17;;;;;;;;;;;;;;;19.80;65.80;101658.78;5062931;28;20329;-53
2022/08/29 09:33:44;;;;;;;;;;;;;;;19.90;65.37;101660.69;5063820;28;19964;-53
2022/08/29 09:36:13;;;;;;;;;;;;;;;19.99;65.61;101659.94;5061810;28;20307;-52
2022/08/29 09:38:38;;;;;;;;;;;;;;;20.07;65.34;101662.81;5061885;28;19920;-53
2022/08/29 09:41:09;;;;;;;;;;;;;;;20.14;65.07;101662.31;5060294;28;19920;-52
2022/08/29 09:43:37;;;;;;;;;;;;;;;20.20;64.83;101668.00;5045138;28;19931;-52
2022/08/29 09:46:12;;;;;;;;;;;;;;;20.24;64.72;101663.22;5059821;28;19924;-52
2022/08/29 09:48:39;;;;;;;;;;;;;;;20.29;64.70;101661.00;5062986;28;19916;-52
2022/08/29 09:51:34;;;;;;;;;;;;;;;20.37;64.65;101674.56;5044578;28;19932;-53
2022/08/29 09:54:14;;;;;;;;;;;;;;;20.41;64.34;101668.00;5042348;28;20414;-52
2022/08/29 09:56:48;;;;;;;;;;;;;;;20.46;64.55;101672.94;5061063;28;20427;-52
2022/08/29 09:59:19;;;;;;;;;;;;;;;20.49;64.37;101670.00;5062527;28;19920;-52
2022/08/29 10:01:45;;;;;;;;;;;;;;;20.50;64.22;101661.00;5061842;28;19948;-52
2022/08/29 10:04:10;;;;;;;;;;;;;;;20.55;64.11;101666.81;5060598;28;19979;-51
2022/08/29 10:06:39;;;;;;;;;;;;;;;20.58;64.04;101680.88;5062046;28;20361;-52
2022/08/29 10:09:09;;;;;;;;;;;;;;;20.62;64.35;101669.81;5061719;28;20284;-52
2022/08/29 10:11:52;;;;;;;;;;;;;;;20.67;63.83;101674.75;5058294;28;20246;-52
2022/08/29 10:14:29;;;;;;;;;;;;;;;20.68;63.80;101671.94;5059931;28;19925;-52
2022/08/29 10:20:05;;;;;;;;;;;;;;;20.69;64.06;101668.28;5057977;28;19924;-52
2022/08/29 10:22:31;;;;;;;;;;;;;;;20.74;64.11;101680.41;5059395;28;19927;-53
2022/08/29 10:25:02;;;;;;;;;;;;;;;20.78;63.82;101673.88;5059498;28;19986;-52
2022/08/29 10:27:44;;;;;;;;;;;;;;;20.78;63.98;101671.19;5063255;28;19966;-52
2022/08/29 10:30:13;;;;;;;;;;;;;;;20.78;63.90;101681.88;5062590;28;20006;-52
2022/08/29 10:32:41;;;;;;;;;;;;;;;20.75;63.80;101682.97;5062061;28;19916;-52
2022/08/29 10:35:10;;;;;;;;;;;;;;;20.74;64.29;101680.41;5062655;28;20011;-51
2022/08/29 10:37:38;;;;;;;;;;;;;;;20.66;64.45;101689.94;5063904;28;19919;-51
2022/08/29 10:40:09;;;;;;;;;;;;;;;20.59;64.84;101693.25;5055647;28;19924;-52
2022/08/29 10:42:37;;;;;;;;;;;;;;;20.55;65.24;101692.69;5057193;28;19939;-51
2022/08/29 10:45:02;;;;;;;;;;;;;;;20.50;65.38;101679.72;5062662;28;20003;-52
2022/08/29 10:47:33;;;;;;;;;;;;;;;20.53;65.63;101681.28;5058526;28;20366;-52
2022/08/29 10:50:05;;;;;;;;;;;;;;;20.54;65.47;101685.66;5064880;28;19932;-52
2022/08/29 10:52:30;;;;;;;;;;;;;;;20.57;65.52;101685.38;5062432;28;19959;-52
2022/08/29 10:55:09;;;;;;;;;;;;;;;20.62;65.67;101682.31;5062209;28;19959;-52
2022/08/29 10:58:01;;;;;;;;;;;;;;;20.68;65.74;101687.97;5060733;28;20292;-52
2022/08/29 11:00:38;;;;;;;;;;;;;;;20.73;65.29;101700.13;5045675;28;20011;-52
2022/08/29 11:03:09;;;;;;;;;;;;;;;20.77;65.12;101674.84;5060013;28;19969;-52
2022/08/29 11:05:39;;;;;;;;;;;;;;;20.82;65.36;101680.63;5061038;28;19912;-53
2022/08/29 11:08:08;;;;;;;;;;;;;;;20.90;65.11;101678.13;5062931;28;20521;-52
2022/08/29 11:10:39;;;;;;;;;;;;;;;20.98;64.87;101678.31;5061969;28;19921;-52
2022/08/29 11:13:16;;;;;;;;;;;;;;;21.03;64.59;101669.88;5060113;28;19951;-52
2022/08/29 11:15:51;;;;;;;;;;;;;;;21.10;64.58;101691.63;5062906;28;19921;-52
2022/08/29 11:18:35;;;;;;;;;;;;;;;21.15;64.33;101675.97;5062719;28;19924;-52
2022/08/29 11:21:24;;;;;;;;;;;;;;;21.17;64.12;101674.03;5063447;28;20400;-51
2022/08/29 11:23:49;;;;;;;;;;;;;;;21.17;64.02;101679.38;5062227;28;19917;-52
2022/08/29 11:26:15;;;;;;;;;;;;;;;21.15;64.19;101692.03;5048089;28;19925;-53
2022/08/29 11:28:48;;;;;;;;;;;;;;;21.14;64.23;101693.00;5068722;28;19921;-52
2022/08/29 11:31:29;;;;;;;;;;;;;;;21.15;64.01;101684.88;5063383;28;19920;-52
2022/08/29 11:34:05;;;;;;;;;;;;;;;21.21;64.35;101704.03;5064748;28;20084;-53
2022/08/29 11:36:44;;;;;;;;;;;;;;;21.24;64.32;101682.34;5061618;28;19931;-54
2022/08/29 11:39:12;;;;;;;;;;;;;;;21.26;64.32;101681.22;5064864;28;20373;-53
2022/08/29 11:41:42;;;;;;;;;;;;;;;21.26;64.33;101686.56;5062366;28;19916;-53
2022/08/29 11:44:16;;;;;;;;;;;;;;;21.31;64.52;101681.66;5060810;28;19920;-53
2022/08/29 11:46:44;;;;;;;;;;;;;;;21.36;64.47;101685.78;5063142;28;19977;-53
2022/08/29 11:49:27;;;;;;;;;;;;;;;21.40;63.97;101688.03;5066596;28;20471;-53
2022/08/29 11:51:58;;;;;;;;;;;;;;;21.48;64.03;101695.38;5061828;28;19928;-53
2022/08/29 11:54:23;;;;;;;;;;;;;;;21.54;63.83;101692.16;5065480;28;20354;-53
2022/08/29 11:57:09;;;;;;;;;;;;;;;21.59;63.93;101687.22;5062050;28;20406;-52
2022/08/29 11:59:49;;;;;;;;;;;;;;;21.67;64.00;101693.75;5024231;28;20007;-53
2022/08/29 12:02:21;;;;;;;;;;;;;;;21.73;63.41;101694.06;5061658;28;20332;-53
2022/08/29 12:04:56;;;;;;;;;;;;;;;21.75;63.41;101691.22;5065403;28;19948;-53
2022/08/29 12:07:32;;;;;;;;;;;;;;;21.76;63.24;101698.28;5061108;28;19920;-52
2022/08/29 12:09:59;;;;;;;;;;;;;;;21.79;62.94;101703.38;5065158;28;19921;-53
2022/08/29 12:12:47;;;;;;;;;;;;;;;21.82;63.15;101687.00;5061537;28;19962;-53
2022/08/29 12:15:25;;;;;;;;;;;;;;;21.87;63.05;101694.63;5062384;28;19924;-53
2022/08/29 12:17:50;;;;;;;;;;;;;;;21.89;63.12;101712.25;5064574;28;19935;-54
2022/08/29 12:20:34;;;;;;;;;;;;;;;21.90;62.79;101697.88;5061233;28;19924;-52
2022/08/29 12:23:09;;;;;;;;;;;;;;;21.86;62.41;101699.13;5082703;28;20040;-52
2022/08/29 12:25:43;;;;;;;;;;;;;;;21.86;62.40;101692.94;5060033;28;20418;-52
2022/08/29 12:28:30;;;;;;;;;;;;;;;21.87;62.45;101698.13;5059643;28;19947;-52
2022/08/29 12:30:58;;;;;;;;;;;;;;;21.88;62.63;101694.47;5062924;28;19924;-52
2022/08/29 12:33:26;;;;;;;;;;;;;;;21.87;62.66;101700.81;5048646;28;19952;-52
2022/08/29 12:36:11;;;;;;;;;;;;;;;21.85;62.66;101692.09;5064680;28;19924;-52
2022/08/29 12:38:49;;;;;;;;;;;;;;;21.88;62.69;101693.66;5062040;28;19925;-53
2022/08/29 12:41:50;;;;;;;;;;;;;;;21.88;62.60;101686.44;5061381;28;19943;-53
2022/08/29 12:44:18;;;;;;;;;;;;;;;21.86;62.90;101682.22;4983686;28;19932;-53
2022/08/29 12:46:47;;;;;;;;;;;;;;;21.88;62.73;101686.44;5047352;28;19920;-53